Time;durP1;ratioP1;P1;durP2;ratioP2;P2;SDS_P1;SDS_P2;PMS_P1;PMS_P2;Temp;Humidity;BMP_temperature;BMP_pressure;BME280_temperature;BME280_humidity;BME280_pressure;Samples;Min_cycle;Max_cycle;Signal;HPM_P1;HPM_P2
2022/03/13 00:00:21;;;;;;;;;;;;;;;;;;5048813;28;20470;-78
2022/03/13 00:02:47;;;;;;;;;;;;;;;;;;5043793;28;20385;-78
2022/03/13 00:05:16;;;;;;;;;;;;;;;;;;5048762;28;20012;-77
2022/03/13 00:07:45;;;;;;;;;;;;;;;;;;5043222;28;20333;-77
2022/03/13 00:10:10;;;;;;;;;;;;;;;;;;5057333;28;19974;-77
2022/03/13 00:12:36;;;;;;;;;;;;;;;;;;5051861;28;19924;-78
2022/03/13 00:15:05;;;;;;;;;;;;;;;;;;5046780;28;19944;-76
2022/03/13 00:17:30;;;;;;;;;;;;;;;;;;5067859;28;19962;-77
2022/03/13 00:20:00;;;;;;;;;;;;;;;;;;5059885;28;20380;-76
2022/03/13 00:22:30;;;;;;;;;;;;;;;;;;5056054;28;19924;-77
2022/03/13 00:24:56;;;;;;;;;;;;;;;;;;5056660;28;19924;-76
2022/03/13 00:27:21;;;;;;;;;;;;;;;;;;5056299;28;19924;-77
2022/03/13 00:29:48;;;;;;;;;;;;;;;;;;5056301;28;19962;-77
2022/03/13 00:32:13;;;;;;;;;;;;;;;;;;5056317;28;19921;-76
2022/03/13 00:34:38;;;;;;;;;;;;;;;;;;5056006;28;20407;-77
2022/03/13 00:37:04;;;;;;;;;;;;;;;;;;5056609;28;19917;-76
2022/03/13 00:39:30;;;;;;;;;;;;;;;;;;5055934;28;19921;-76
2022/03/13 00:41:55;;;;;;;;;;;;;;;;;;5054985;28;19951;-75
2022/03/13 00:44:21;;;;;;;;;;;;;;;;;;5056081;28;19917;-76
2022/03/13 00:46:46;;;;;;;;;;;;;;;;;;5055957;28;19924;-76
2022/03/13 00:49:12;;;;;;;;;;;;;;;;;;5056005;28;19970;-76
2022/03/13 00:51:37;;;;;;;;;;;;;;;;;;5055955;28;19921;-76
2022/03/13 00:54:04;;;;;;;;;;;;;;;;;;5055871;28;19923;-76
2022/03/13 00:56:29;;;;;;;;;;;;;;;;;;5055926;28;19916;-76
2022/03/13 00:58:54;;;;;;;;;;;;;;;;;;5055730;28;20411;-76
2022/03/13 01:01:20;;;;;;;;;;;;;;;;;;5055835;28;19966;-75
2022/03/13 01:03:50;;;;;;;;;;;;;;;;;;5055758;28;20015;-76
2022/03/13 01:06:16;;;;;;;;;;;;;;;;;;5055902;28;19979;-75
2022/03/13 01:08:44;;;;;;;;;;;;;;;;;;5055611;28;20426;-76
2022/03/13 01:11:10;;;;;;;;;;;;;;;;;;5055579;28;19955;-76
2022/03/13 01:13:35;;;;;;;;;;;;;;;;;;5055609;28;19916;-77
2022/03/13 01:16:11;;;;;;;;;;;;;;;;;;5055672;28;19917;-75
2022/03/13 01:18:39;;;;;;;;;;;;;;;;;;5055188;28;19924;-75
2022/03/13 01:21:05;;;;;;;;;;;;;;;;;;5055452;28;19935;-76
2022/03/13 01:23:30;;;;;;;;;;;;;;;;;;5055344;28;19912;-77
2022/03/13 01:26:15;;;;;;;;;;;;;;;;;;5055434;28;20019;-77
2022/03/13 01:28:41;;;;;;;;;;;;;;;;;;5055101;28;19917;-76
2022/03/13 01:31:07;;;;;;;;;;;;;;;;;;5055716;28;19921;-76
2022/03/13 01:33:33;;;;;;;;;;;;;;;;;;5055096;28;19923;-77
2022/03/13 01:35:58;;;;;;;;;;;;;;;;;;5055083;28;19917;-76
2022/03/13 01:38:24;;;;;;;;;;;;;;;;;;5055230;28;20006;-76
2022/03/13 01:40:49;;;;;;;;;;;;;;;;;;5054788;28;19921;-76
2022/03/13 01:43:15;;;;;;;;;;;;;;;;;;5053739;28;19917;-76
2022/03/13 01:45:41;;;;;;;;;;;;;;;;;;5054792;28;19947;-77
2022/03/13 01:48:07;;;;;;;;;;;;;;;;;;5054867;28;19928;-76
2022/03/13 01:50:32;;;;;;;;;;;;;;;;;;5054753;28;19917;-78
2022/03/13 01:52:58;;;;;;;;;;;;;;;;;;5053452;28;19954;-77
2022/03/13 01:55:23;;;;;;;;;;;;;;;;;;5053579;28;19917;-76
2022/03/13 01:57:49;;;;;;;;;;;;;;;;;;5054896;28;19956;-76
2022/03/13 02:00:16;;;;;;;;;;;;;;;;;;5054671;28;20304;-76
2022/03/13 02:02:44;;;;;;;;;;;;;;;;;;5054554;28;20294;-76
2022/03/13 02:05:16;;;;;;;;;;;;;;;;;;5053204;28;20357;-75
2022/03/13 02:07:45;;;;;;;;;;;;;;;;;;5053249;28;19916;-76
2022/03/13 02:10:11;;;;;;;;;;;;;;;;;;5054401;28;20011;-75
2022/03/13 02:12:36;;;;;;;;;;;;;;;;;;5054218;28;19920;-76
2022/03/13 02:15:02;;;;;;;;;;;;;;;;;;5054558;28;19917;-77
2022/03/13 02:17:32;;;;;;;;;;;;;;;;;;5054212;28;20372;-76
2022/03/13 02:19:58;;;;;;;;;;;;;;;;;;5054399;28;19924;-76
2022/03/13 02:22:24;;;;;;;;;;;;;;;;;;5054175;28;19917;-77
2022/03/13 02:24:51;;;;;;;;;;;;;;;;;;5054064;28;19924;-76
2022/03/13 02:27:19;;;;;;;;;;;;;;;;;;5054148;28;20377;-79
2022/03/13 02:29:45;;;;;;;;;;;;;;;;;;5054284;28;19917;-77
2022/03/13 02:32:10;;;;;;;;;;;;;;;;;;5054105;28;20280;-77
2022/03/13 02:34:36;;;;;;;;;;;;;;;;;;5054165;28;20024;-78
2022/03/13 02:37:02;;;;;;;;;;;;;;;;;;5053950;28;20457;-77
2022/03/13 02:39:28;;;;;;;;;;;;;;;;;;5053811;28;19927;-79
2022/03/13 02:41:54;;;;;;;;;;;;;;;;;;5053879;28;19924;-76
2022/03/13 02:44:19;;;;;;;;;;;;;;;;;;5053346;28;19917;-77
2022/03/13 02:46:48;;;;;;;;;;;;;;;;;;5053671;28;19964;-76
2022/03/13 02:49:14;;;;;;;;;;;;;;;;;;5053764;28;20398;-76
2022/03/13 02:51:41;;;;;;;;;;;;;;;;;;5053711;28;19917;-76
2022/03/13 02:54:07;;;;;;;;;;;;;;;;;;5053778;28;19921;-77
2022/03/13 02:56:32;;;;;;;;;;;;;;;;;;5053751;28;19969;-77
2022/03/13 02:58:58;;;;;;;;;;;;;;;;;;5053664;28;20308;-76
2022/03/13 03:01:23;;;;;;;;;;;;;;;;;;5052385;28;19932;-76
2022/03/13 03:03:49;;;;;;;;;;;;;;;;;;5053645;28;20360;-77
2022/03/13 03:06:14;;;;;;;;;;;;;;;;;;5052236;28;19967;-77
2022/03/13 03:08:40;;;;;;;;;;;;;;;;;;5035697;28;19923;-77
2022/03/13 03:11:05;;;;;;;;;;;;;;;;;;5053549;28;19913;-76
2022/03/13 03:13:31;;;;;;;;;;;;;;;;;;5053880;28;20299;-76
2022/03/13 03:15:56;;;;;;;;;;;;;;;;;;5053527;28;19917;-77
2022/03/13 03:18:22;;;;;;;;;;;;;;;;;;5053558;28;19939;-76
2022/03/13 03:20:47;;;;;;;;;;;;;;;;;;5053440;28;19916;-77
2022/03/13 03:23:13;;;;;;;;;;;;;;;;;;5053481;28;19919;-77
2022/03/13 03:25:39;;;;;;;;;;;;;;;;;;5053541;28;20015;-77
2022/03/13 03:28:04;;;;;;;;;;;;;;;;;;5053450;28;20000;-76
2022/03/13 03:30:30;;;;;;;;;;;;;;;;;;5053481;28;19912;-77
2022/03/13 03:32:56;;;;;;;;;;;;;;;;;;5052022;28;20420;-76
2022/03/13 03:35:22;;;;;;;;;;;;;;;;;;5053731;28;19920;-77
2022/03/13 03:37:51;;;;;;;;;;;;;;;;;;5053333;28;19986;-76
2022/03/13 03:40:20;;;;;;;;;;;;;;;;;;5053041;28;20431;-76
2022/03/13 03:42:46;;;;;;;;;;;;;;;;;;5053472;28;20396;-77
2022/03/13 03:45:13;;;;;;;;;;;;;;;;;;5053457;28;19931;-76
2022/03/13 03:47:39;;;;;;;;;;;;;;;;;;5053232;28;19999;-76
2022/03/13 03:50:04;;;;;;;;;;;;;;;;;;5053167;28;19963;-77
2022/03/13 03:52:30;;;;;;;;;;;;;;;;;;5053238;28;19923;-77
2022/03/13 03:54:55;;;;;;;;;;;;;;;;;;5053013;28;20015;-77
2022/03/13 03:57:20;;;;;;;;;;;;;;;;;;5054859;28;20013;-77
2022/03/13 03:59:46;;;;;;;;;;;;;;;;;;5057195;28;20262;-77
2022/03/13 04:02:12;;;;;;;;;;;;;;;;;;5056943;28;19917;-77
2022/03/13 04:04:39;;;;;;;;;;;;;;;;;;5056778;28;20372;-77
2022/03/13 04:07:04;;;;;;;;;;;;;;;;;;5056766;28;20004;-77
2022/03/13 04:09:30;;;;;;;;;;;;;;;;;;5056739;28;19917;-77
2022/03/13 04:11:56;;;;;;;;;;;;;;;;;;5056771;28;20068;-77
2022/03/13 04:14:22;;;;;;;;;;;;;;;;;;5056657;28;19917;-77
2022/03/13 04:16:48;;;;;;;;;;;;;;;;;;5056588;28;20360;-77
2022/03/13 04:19:14;;;;;;;;;;;;;;;;;;5056573;28;19924;-77
2022/03/13 04:21:41;;;;;;;;;;;;;;;;;;5056508;28;19917;-77
2022/03/13 04:24:11;;;;;;;;;;;;;;;;;;5056676;28;19921;-77
2022/03/13 04:26:39;;;;;;;;;;;;;;;;;;5056182;28;19921;-77
2022/03/13 04:29:06;;;;;;;;;;;;;;;;;;5055098;28;19917;-77
2022/03/13 04:31:35;;;;;;;;;;;;;;;;;;5056504;28;19913;-78
2022/03/13 04:34:01;;;;;;;;;;;;;;;;;;5056194;28;19921;-76
2022/03/13 04:36:28;;;;;;;;;;;;;;;;;;5056202;28;19953;-75
2022/03/13 04:38:53;;;;;;;;;;;;;;;;;;5055948;28;19920;-75
2022/03/13 04:41:18;;;;;;;;;;;;;;;;;;5056185;28;20353;-76
2022/03/13 04:43:44;;;;;;;;;;;;;;;;;;5056280;28;20432;-77
2022/03/13 04:46:09;;;;;;;;;;;;;;;;;;5056095;28;19924;-77
2022/03/13 04:48:35;;;;;;;;;;;;;;;;;;5055989;28;20396;-78
2022/03/13 04:51:01;;;;;;;;;;;;;;;;;;5055984;28;20377;-77
2022/03/13 04:53:27;;;;;;;;;;;;;;;;;;5054689;28;19924;-76
2022/03/13 04:55:53;;;;;;;;;;;;;;;;;;5055956;28;19917;-77
2022/03/13 04:58:20;;;;;;;;;;;;;;;;;;5055210;28;20204;-77
2022/03/13 05:00:47;;;;;;;;;;;;;;;;;;5056028;28;19927;-77
2022/03/13 05:03:13;;;;;;;;;;;;;;;;;;5055823;28;19980;-77
2022/03/13 05:05:40;;;;;;;;;;;;;;;;;;5055646;28;20003;-77
2022/03/13 05:08:06;;;;;;;;;;;;;;;;;;5055173;28;19917;-77
2022/03/13 05:10:38;;;;;;;;;;;;;;;;;;5055634;28;19917;-77
2022/03/13 05:13:04;;;;;;;;;;;;;;;;;;5055656;28;19917;-77
2022/03/13 05:15:30;;;;;;;;;;;;;;;;;;5055464;28;19967;-77
2022/03/13 05:17:55;;;;;;;;;;;;;;;;;;5055473;28;20376;-77
2022/03/13 05:20:21;;;;;;;;;;;;;;;;;;5055691;28;19921;-77
2022/03/13 05:22:46;;;;;;;;;;;;;;;;;;5055260;28;20368;-78
2022/03/13 05:25:11;;;;;;;;;;;;;;;;;;5055381;28;19917;-76
2022/03/13 05:27:37;;;;;;;;;;;;;;;;;;5055200;28;19917;-77
2022/03/13 05:30:02;;;;;;;;;;;;;;;;;;5055238;28;19924;-77
2022/03/13 05:32:28;;;;;;;;;;;;;;;;;;5055457;28;19923;-77
2022/03/13 05:34:53;;;;;;;;;;;;;;;;;;5055015;28;20062;-77
2022/03/13 05:37:19;;;;;;;;;;;;;;;;;;5055106;28;20430;-77
2022/03/13 05:39:44;;;;;;;;;;;;;;;;;;5054781;28;20003;-77
2022/03/13 05:42:09;;;;;;;;;;;;;;;;;;5054973;28;20011;-77
2022/03/13 05:44:36;;;;;;;;;;;;;;;;;;5054945;28;20005;-78
2022/03/13 05:47:02;;;;;;;;;;;;;;;;;;5053525;28;20274;-78
2022/03/13 05:49:27;;;;;;;;;;;;;;;;;;5054875;28;19916;-76
2022/03/13 05:51:53;;;;;;;;;;;;;;;;;;5054774;28;19916;-77
2022/03/13 05:54:20;;;;;;;;;;;;;;;;;;5055060;28;20303;-77
2022/03/13 05:56:46;;;;;;;;;;;;;;;;;;5054677;28;19986;-78
2022/03/13 05:59:11;;;;;;;;;;;;;;;;;;5054657;28;19917;-77
2022/03/13 06:01:38;;;;;;;;;;;;;;;;;;5054733;28;19968;-77
2022/03/13 06:04:03;;;;;;;;;;;;;;;;;;5054695;28;19917;-77
2022/03/13 06:06:30;;;;;;;;;;;;;;;;;;5054316;28;19916;-78
2022/03/13 06:08:56;;;;;;;;;;;;;;;;;;5054413;28;19927;-77
2022/03/13 06:11:21;;;;;;;;;;;;;;;;;;5054401;28;20420;-77
2022/03/13 06:13:46;;;;;;;;;;;;;;;;;;5054310;28;20415;-77
2022/03/13 06:16:12;;;;;;;;;;;;;;;;;;5054327;28;19917;-77
2022/03/13 06:18:38;;;;;;;;;;;;;;;;;;5054026;28;19917;-78
2022/03/13 06:21:05;;;;;;;;;;;;;;;;;;5053644;28;19927;-79
2022/03/13 06:23:31;;;;;;;;;;;;;;;;;;5054266;28;19952;-78
2022/03/13 06:25:59;;;;;;;;;;;;;;;;;;5054074;28;19967;-78
2022/03/13 06:28:26;;;;;;;;;;;;;;;;;;5054073;28;19916;-78
2022/03/13 06:30:51;;;;;;;;;;;;;;;;;;5054034;28;19917;-78
2022/03/13 06:33:17;;;;;;;;;;;;;;;;;;5045531;28;19971;-78
2022/03/13 06:35:42;;;;;;;;;;;;;;;;;;5044718;28;20258;-78
2022/03/13 06:38:08;;;;;;;;;;;;;;;;;;5049351;28;19921;-77
2022/03/13 06:40:34;;;;;;;;;;;;;;;;;;5044643;28;20336;-77
2022/03/13 06:43:00;;;;;;;;;;;;;;;;;;5049116;28;20380;-77
2022/03/13 06:45:25;;;;;;;;;;;;;;;;;;5051521;28;19966;-76
2022/03/13 06:47:52;;;;;;;;;;;;;;;;;;5052395;28;19921;-77
2022/03/13 06:50:19;;;;;;;;;;;;;;;;;;5046350;28;19921;-76
2022/03/13 06:52:45;;;;;;;;;;;;;;;;;;5048641;28;19920;-77
2022/03/13 06:55:13;;;;;;;;;;;;;;;;;;5051146;28;19921;-77
2022/03/13 06:57:42;;;;;;;;;;;;;;;;;;5053511;28;20293;-77
2022/03/13 07:00:09;;;;;;;;;;;;;;;;;;5050969;28;20526;-78
2022/03/13 07:02:35;;;;;;;;;;;;;;;;;;5051018;28;19920;-78
2022/03/13 07:05:00;;;;;;;;;;;;;;;;;;5053017;28;19928;-77
2022/03/13 07:07:26;;;;;;;;;;;;;;;;;;5053465;28;19920;-76
2022/03/13 07:09:52;;;;;;;;;;;;;;;;;;5053397;28;19916;-75
2022/03/13 07:12:19;;;;;;;;;;;;;;;;;;5050944;28;19917;-76
2022/03/13 07:14:46;;;;;;;;;;;;;;;;;;5040677;28;20332;-78
2022/03/13 07:17:13;;;;;;;;;;;;;;;;;;5047463;28;20000;-76
2022/03/13 07:19:43;;;;;;;;;;;;;;;;;;5053104;28;20398;-76
2022/03/13 07:22:12;;;;;;;;;;;;;;;;;;5053356;28;19916;-79
2022/03/13 07:24:38;;;;;;;;;;;;;;;;;;5053159;28;19923;-78
2022/03/13 07:27:04;;;;;;;;;;;;;;;;;;5053343;28;19921;-75
2022/03/13 07:29:29;;;;;;;;;;;;;;;;;;5053413;28;19963;-75
2022/03/13 07:31:56;;;;;;;;;;;;;;;;;;5056104;28;20440;-75
2022/03/13 07:34:25;;;;;;;;;;;;;;;;;;5057162;28;19920;-77
2022/03/13 07:36:53;;;;;;;;;;;;;;;;;;5048033;28;19924;-78
2022/03/13 07:39:21;;;;;;;;;;;;;;;;;;5055201;28;19939;-78
2022/03/13 07:41:46;;;;;;;;;;;;;;;;;;5054026;28;19925;-75
2022/03/13 07:44:11;;;;;;;;;;;;;;;;;;5052065;28;19925;-76
2022/03/13 07:46:37;;;;;;;;;;;;;;;;;;5052600;28;19925;-76
2022/03/13 07:49:03;;;;;;;;;;;;;;;;;;5054613;28;19975;-76
2022/03/13 07:51:28;;;;;;;;;;;;;;;;;;5056099;28;19925;-77
2022/03/13 07:53:54;;;;;;;;;;;;;;;;;;5054620;28;20388;-77
2022/03/13 07:56:19;;;;;;;;;;;;;;;;;;5055022;28;19932;-75
2022/03/13 07:58:45;;;;;;;;;;;;;;;;;;5053263;28;19928;-75
2022/03/13 08:01:10;;;;;;;;;;;;;;;;;;5055692;28;19928;-74
2022/03/13 08:03:36;;;;;;;;;;;;;;;;;;5054628;28;19936;-76
2022/03/13 08:06:03;;;;;;;;;;;;;;;;;;5054391;28;19920;-75
2022/03/13 08:08:28;;;;;;;;;;;;;;;;;;5052997;28;20012;-75
2022/03/13 08:10:54;;;;;;;;;;;;;;;;;;5055357;28;20412;-77
2022/03/13 08:13:19;;;;;;;;;;;;;;;;;;5050453;28;20375;-76
2022/03/13 08:15:45;;;;;;;;;;;;;;;;;;5047320;28;20405;-75
2022/03/13 08:18:12;;;;;;;;;;;;;;;;;;5057739;28;19926;-77
2022/03/13 08:20:38;;;;;;;;;;;;;;;;;;5056310;28;19917;-75
2022/03/13 08:23:03;;;;;;;;;;;;;;;;;;5055705;28;19931;-75
2022/03/13 08:25:29;;;;;;;;;;;;;;;;;;5056266;28;19971;-74
2022/03/13 08:27:55;;;;;;;;;;;;;;;;;;5056153;28;20011;-76
2022/03/13 08:30:20;;;;;;;;;;;;;;;;;;5055029;28;19921;-75
2022/03/13 08:32:45;;;;;;;;;;;;;;;;;;5059476;28;19928;-78
2022/03/13 08:35:11;;;;;;;;;;;;;;;;;;5076219;28;20284;-75
2022/03/13 08:37:37;;;;;;;;;;;;;;;;;;5076019;28;19974;-74
2022/03/13 08:40:04;;;;;;;;;;;;;;;;;;5073041;28;19943;-74
2022/03/13 08:42:30;;;;;;;;;;;;;;;;;;5049906;28;19925;-76
2022/03/13 08:44:56;;;;;;;;;;;;;;;;;;5049654;28;19920;-76
2022/03/13 08:47:21;;;;;;;;;;;;;;;;;;5055894;28;19986;-75
2022/03/13 08:49:47;;;;;;;;;;;;;;;;;;5054536;28;19917;-75
2022/03/13 08:52:12;;;;;;;;;;;;;;;;;;5054742;28;20353;-75
2022/03/13 08:54:38;;;;;;;;;;;;;;;;;;5055703;28;19958;-76
2022/03/13 08:57:03;;;;;;;;;;;;;;;;;;5055878;28;19942;-76
2022/03/13 08:59:30;;;;;;;;;;;;;;;;;;5055587;28;19939;-76
2022/03/13 09:01:55;;;;;;;;;;;;;;;;;;5055600;28;19971;-74
2022/03/13 09:04:21;;;;;;;;;;;;;;;;;;5055680;28;20311;-75
2022/03/13 09:06:47;;;;;;;;;;;;;;;;;;5055475;28;19935;-76
2022/03/13 09:09:13;;;;;;;;;;;;;;;;;;5055620;28;19923;-75
2022/03/13 09:11:39;;;;;;;;;;;;;;;;;;5054251;28;19923;-77
2022/03/13 09:14:05;;;;;;;;;;;;;;;;;;5055745;28;19921;-78
2022/03/13 09:16:35;;;;;;;;;;;;;;;;;;5055367;28;20373;-75
2022/03/13 09:19:01;;;;;;;;;;;;;;;;;;5055330;28;19940;-76
2022/03/13 09:21:26;;;;;;;;;;;;;;;;;;5055035;28;19921;-76
2022/03/13 09:23:52;;;;;;;;;;;;;;;;;;5055278;28;19927;-74
2022/03/13 09:26:17;;;;;;;;;;;;;;;;;;5047631;28;20312;-76
2022/03/13 09:28:43;;;;;;;;;;;;;;;;;;5054945;28;20376;-76
2022/03/13 09:31:10;;;;;;;;;;;;;;;;;;5055150;28;19924;-77
2022/03/13 09:33:35;;;;;;;;;;;;;;;;;;5054992;28;20058;-75
2022/03/13 09:36:01;;;;;;;;;;;;;;;;;;5055264;28;19959;-76
2022/03/13 09:38:27;;;;;;;;;;;;;;;;;;5055069;28;19986;-77
2022/03/13 09:40:53;;;;;;;;;;;;;;;;;;5054707;28;19925;-76
2022/03/13 09:43:20;;;;;;;;;;;;;;;;;;5054793;28;19924;-76
2022/03/13 09:45:46;;;;;;;;;;;;;;;;;;5054506;28;19917;-77
2022/03/13 09:48:15;;;;;;;;;;;;;;;;;;5054024;28;19924;-76
2022/03/13 09:50:41;;;;;;;;;;;;;;;;;;5054642;28;19920;-77
2022/03/13 09:53:06;;;;;;;;;;;;;;;;;;5054537;28;19922;-78
2022/03/13 09:55:32;;;;;;;;;;;;;;;;;;5054344;28;20414;-76
2022/03/13 09:57:57;;;;;;;;;;;;;;;;;;5054292;28;19912;-76
2022/03/13 10:00:25;;;;;;;;;;;;;;;;;;5054825;28;20364;-73
2022/03/13 10:02:53;;;;;;;;;;;;;;;;;;5054655;28;19974;-77
2022/03/13 10:05:20;;;;;;;;;;;;;;;;;;5054414;28;19963;-77
2022/03/13 10:08:01;;;;;;;;;;;;;;;;;;5054016;28;20418;-77
2022/03/13 10:10:32;;;;;;;;;;;;;;;;;;5054329;28;19952;-76
2022/03/13 10:12:59;;;;;;;;;;;;;;;;;;5042172;28;19928;-77
2022/03/13 10:15:25;;;;;;;;;;;;;;;;;;5043837;28;20274;-78
2022/03/13 10:17:51;;;;;;;;;;;;;;;;;;5049845;28;19936;-78
2022/03/13 10:20:19;;;;;;;;;;;;;;;;;;5048718;28;19948;-77
2022/03/13 10:22:45;;;;;;;;;;;;;;;;;;5047631;28;20001;-77
2022/03/13 10:25:13;;;;;;;;;;;;;;;;;;5052436;28;20027;-76
2022/03/13 10:27:39;;;;;;;;;;;;;;;;;;5047915;28;20024;-78
2022/03/13 10:30:08;;;;;;;;;;;;;;;;;;5053018;28;19952;-77
2022/03/13 10:32:35;;;;;;;;;;;;;;;;;;5050141;28;19994;-79
2022/03/13 10:35:01;;;;;;;;;;;;;;;;;;5052391;28;20300;-78
2022/03/13 10:37:38;;;;;;;;;;;;;;;;;;5052283;28;19950;-78
2022/03/13 10:40:07;;;;;;;;;;;;;;;;;;5033739;28;19928;-78
2022/03/13 10:42:39;;;;;;;;;;;;;;;;;;5033952;28;19917;-78
2022/03/13 10:45:06;;;;;;;;;;;;;;;;;;5033944;28;20368;-78
2022/03/13 10:47:32;;;;;;;;;;;;;;;;;;5033822;28;19917;-77
2022/03/13 10:49:57;;;;;;;;;;;;;;;;;;5033801;28;19925;-77
2022/03/13 10:52:29;;;;;;;;;;;;;;;;;;5034048;28;19917;-78
2022/03/13 10:54:55;;;;;;;;;;;;;;;;;;5033974;28;20332;-78
2022/03/13 10:57:21;;;;;;;;;;;;;;;;;;5034124;28;19917;-77
2022/03/13 11:00:05;;;;;;;;;;;;;;;;;;5046000;28;19936;-79
2022/03/13 11:02:31;;;;;;;;;;;;;;;;;;5049074;28;20012;-79
2022/03/13 11:04:57;;;;;;;;;;;;;;;;;;5053185;28;19971;-78
2022/03/13 11:07:24;;;;;;;;;;;;;;;;;;5053098;28;19917;-78
2022/03/13 11:09:49;;;;;;;;;;;;;;;;;;5053377;28;20365;-78
2022/03/13 11:12:20;;;;;;;;;;;;;;;;;;5053474;28;19959;-78
2022/03/13 11:14:50;;;;;;;;;;;;;;;;;;5053361;28;19963;-79
2022/03/13 11:17:17;;;;;;;;;;;;;;;;;;5052640;28;20007;-78
2022/03/13 11:19:43;;;;;;;;;;;;;;;;;;5049575;28;19920;-77
2022/03/13 11:22:09;;;;;;;;;;;;;;;;;;5051942;28;19923;-78
2022/03/13 11:24:36;;;;;;;;;;;;;;;;;;5053346;28;20292;-78
2022/03/13 11:27:02;;;;;;;;;;;;;;;;;;5046916;28;19960;-79
2022/03/13 11:29:40;;;;;;;;;;;;;;;;;;5050068;28;20408;-77
2022/03/13 11:32:24;;;;;;;;;;;;;;;;;;5068875;28;19971;-78
2022/03/13 11:35:08;;;;;;;;;;;;;;;;;;5038841;28;19921;-78
2022/03/13 11:37:33;;;;;;;;;;;;;;;;;;5058562;28;19916;-77
2022/03/13 11:40:00;;;;;;;;;;;;;;;;;;5051862;28;20383;-78
2022/03/13 11:42:25;;;;;;;;;;;;;;;;;;5053394;28;19920;-77
2022/03/13 11:44:51;;;;;;;;;;;;;;;;;;5053296;28;20335;-79
2022/03/13 11:47:22;;;;;;;;;;;;;;;;;;5050847;28;19929;-77
2022/03/13 11:49:47;;;;;;;;;;;;;;;;;;5055718;28;19917;-78
2022/03/13 11:52:13;;;;;;;;;;;;;;;;;;5053409;28;19917;-78
2022/03/13 11:54:53;;;;;;;;;;;;;;;;;;5053449;28;19917;-76
2022/03/13 11:57:19;;;;;;;;;;;;;;;;;;5053307;28;19916;-78
2022/03/13 11:59:49;;;;;;;;;;;;;;;;;;5053044;28;19940;-78
2022/03/13 12:02:34;;;;;;;;;;;;;;;;;;5053087;28;19917;-76
2022/03/13 12:05:19;;;;;;;;;;;;;;;;;;5044041;28;19925;-78
2022/03/13 12:07:53;;;;;;;;;;;;;;;;;;5049819;28;19921;-77
2022/03/13 12:10:41;;;;;;;;;;;;;;;;;;5044301;28;19917;-77
2022/03/13 12:13:07;;;;;;;;;;;;;;;;;;5053057;28;20396;-77
2022/03/13 12:15:34;;;;;;;;;;;;;;;;;;5052809;28;19970;-76
2022/03/13 12:18:01;;;;;;;;;;;;;;;;;;5054023;28;20015;-77
2022/03/13 12:20:31;;;;;;;;;;;;;;;;;;5056556;28;19921;-76
2022/03/13 12:22:57;;;;;;;;;;;;;;;;;;5056397;28;19970;-77
2022/03/13 12:25:26;;;;;;;;;;;;;;;;;;5056437;28;19916;-77
2022/03/13 12:27:52;;;;;;;;;;;;;;;;;;5056227;28;19924;-77
2022/03/13 12:30:32;;;;;;;;;;;;;;;;;;5056303;28;20417;-76
2022/03/13 12:32:58;;;;;;;;;;;;;;;;;;5055940;28;19921;-77
2022/03/13 12:35:24;;;;;;;;;;;;;;;;;;5055674;28;20438;-78
2022/03/13 12:37:59;;;;;;;;;;;;;;;;;;5055052;28;19928;-78
2022/03/13 12:40:25;;;;;;;;;;;;;;;;;;5053740;28;19971;-79
2022/03/13 12:42:54;;;;;;;;;;;;;;;;;;5056039;28;20365;-78
2022/03/13 12:45:21;;;;;;;;;;;;;;;;;;5054801;28;19916;-77
2022/03/13 12:47:49;;;;;;;;;;;;;;;;;;5054551;28;20498;-77
2022/03/13 12:50:17;;;;;;;;;;;;;;;;;;5056082;28;19921;-77
2022/03/13 12:52:44;;;;;;;;;;;;;;;;;;5056091;28;19924;-78
2022/03/13 12:55:10;;;;;;;;;;;;;;;;;;5054546;28;20426;-75
2022/03/13 12:57:37;;;;;;;;;;;;;;;;;;5055816;28;19943;-75
2022/03/13 13:00:04;;;;;;;;;;;;;;;;;;5055666;28;19917;-77
2022/03/13 13:02:35;;;;;;;;;;;;;;;;;;5056024;28;19928;-77
2022/03/13 13:05:04;;;;;;;;;;;;;;;;;;5055644;28;19964;-78
2022/03/13 13:07:31;;;;;;;;;;;;;;;;;;5055538;28;20030;-77
2022/03/13 13:09:58;;;;;;;;;;;;;;;;;;5055785;28;19921;-77
2022/03/13 13:12:27;;;;;;;;;;;;;;;;;;5055535;28;20359;-77
2022/03/13 13:14:52;;;;;;;;;;;;;;;;;;5050444;28;19924;-77
2022/03/13 13:17:24;;;;;;;;;;;;;;;;;;5055431;28;19916;-77
2022/03/13 13:19:50;;;;;;;;;;;;;;;;;;5055291;28;19917;-76
2022/03/13 13:22:22;;;;;;;;;;;;;;;;;;5055444;28;20352;-78
2022/03/13 13:24:48;;;;;;;;;;;;;;;;;;5054794;28;19936;-76
2022/03/13 13:27:27;;;;;;;;;;;;;;;;;;5059570;28;19921;-76
2022/03/13 13:29:52;;;;;;;;;;;;;;;;;;5054855;28;20013;-77
2022/03/13 13:32:32;;;;;;;;;;;;;;;;;;5049169;28;19956;-77
2022/03/13 13:35:04;;;;;;;;;;;;;;;;;;5050353;28;19925;-78
2022/03/13 13:37:29;;;;;;;;;;;;;;;;;;5049822;28;20007;-76
2022/03/13 13:40:05;;;;;;;;;;;;;;;;;;5052869;28;20055;-78
2022/03/13 13:42:32;;;;;;;;;;;;;;;;;;5051678;28;19967;-77
2022/03/13 13:45:00;;;;;;;;;;;;;;;;;;5054898;28;20045;-76
2022/03/13 13:47:26;;;;;;;;;;;;;;;;;;5054938;28;20289;-77
2022/03/13 13:49:51;;;;;;;;;;;;;;;;;;5054998;28;19921;-77
2022/03/13 13:52:17;;;;;;;;;;;;;;;;;;5054973;28;19967;-77
2022/03/13 13:54:43;;;;;;;;;;;;;;;;;;5054958;28;19924;-77
2022/03/13 13:57:17;;;;;;;;;;;;;;;;;;5054926;28;19923;-77
2022/03/13 13:59:42;;;;;;;;;;;;;;;;;;5054675;28;19917;-80
2022/03/13 14:02:18;;;;;;;;;;;;;;;;;;5054832;28;19923;-80
2022/03/13 14:04:47;;;;;;;;;;;;;;;;;;5054605;28;19921;-80
2022/03/13 14:07:13;;;;;;;;;;;;;;;;;;5054574;28;19921;-78
2022/03/13 14:09:38;;;;;;;;;;;;;;;;;;5054555;28;19923;-78
2022/03/13 14:12:05;;;;;;;;;;;;;;;;;;5053204;28;20335;-78
2022/03/13 14:14:30;;;;;;;;;;;;;;;;;;5054488;28;19943;-78
2022/03/13 14:16:56;;;;;;;;;;;;;;;;;;5054114;28;19921;-76
2022/03/13 14:19:26;;;;;;;;;;;;;;;;;;5054214;28;19923;-77
2022/03/13 14:21:52;;;;;;;;;;;;;;;;;;5069472;28;19970;-77
2022/03/13 14:24:18;;;;;;;;;;;;;;;;;;5054337;28;20435;-78
2022/03/13 14:26:44;;;;;;;;;;;;;;;;;;5054260;28;19917;-77
2022/03/13 14:29:10;;;;;;;;;;;;;;;;;;5054124;28;19924;-77
2022/03/13 14:31:35;;;;;;;;;;;;;;;;;;5053883;28;20299;-77
2022/03/13 14:34:01;;;;;;;;;;;;;;;;;;5054077;28;19916;-78
2022/03/13 14:36:26;;;;;;;;;;;;;;;;;;5054103;28;20376;-76
2022/03/13 14:38:52;;;;;;;;;;;;;;;;;;5053614;28;19917;-76
2022/03/13 14:41:19;;;;;;;;;;;;;;;;;;5053527;28;19917;-77
2022/03/13 14:43:45;;;;;;;;;;;;;;;;;;5053784;28;19917;-76
2022/03/13 14:46:12;;;;;;;;;;;;;;;;;;5053431;28;19920;-77
2022/03/13 14:48:38;;;;;;;;;;;;;;;;;;5044783;28;19920;-78
2022/03/13 14:51:04;;;;;;;;;;;;;;;;;;5040293;28;20034;-78
2022/03/13 14:53:30;;;;;;;;;;;;;;;;;;5040837;28;20023;-78
2022/03/13 14:55:55;;;;;;;;;;;;;;;;;;5042318;28;20040;-76
2022/03/13 14:58:21;;;;;;;;;;;;;;;;;;5039827;28;20390;-78
2022/03/13 15:00:47;;;;;;;;;;;;;;;;;;5048548;28;19929;-77
2022/03/13 15:03:12;;;;;;;;;;;;;;;;;;5041990;28;20024;-79
2022/03/13 15:05:38;;;;;;;;;;;;;;;;;;5036797;28;19967;-78
2022/03/13 15:08:03;;;;;;;;;;;;;;;;;;5038415;28;19921;-76
2022/03/13 15:10:29;;;;;;;;;;;;;;;;;;5039124;28;19925;-76
2022/03/13 15:12:54;;;;;;;;;;;;;;;;;;5042101;28;19925;-76
2022/03/13 15:15:21;;;;;;;;;;;;;;;;;;5041197;28;19925;-77
2022/03/13 15:17:46;;;;;;;;;;;;;;;;;;5051098;28;19917;-79
2022/03/13 15:20:12;;;;;;;;;;;;;;;;;;5037385;28;20324;-78
2022/03/13 15:22:37;;;;;;;;;;;;;;;;;;5038601;28;19928;-79
2022/03/13 15:25:03;;;;;;;;;;;;;;;;;;5048651;28;19928;-79
2022/03/13 15:27:28;;;;;;;;;;;;;;;;;;5038818;28;20359;-79
2022/03/13 15:29:54;;;;;;;;;;;;;;;;;;5041383;28;20572;-77
2022/03/13 15:32:19;;;;;;;;;;;;;;;;;;5054278;28;19917;-77
2022/03/13 15:34:44;;;;;;;;;;;;;;;;;;5037545;28;20311;-78
2022/03/13 15:37:12;;;;;;;;;;;;;;;;;;5038912;28;19944;-79
2022/03/13 15:39:37;;;;;;;;;;;;;;;;;;5070705;28;20428;-77
2022/03/13 15:42:03;;;;;;;;;;;;;;;;;;5073226;28;20008;-81
2022/03/13 15:44:28;;;;;;;;;;;;;;;;;;5073491;28;20014;-76
2022/03/13 15:46:54;;;;;;;;;;;;;;;;;;5073147;28;20272;-77
2022/03/13 15:49:19;;;;;;;;;;;;;;;;;;5072416;28;19938;-73
2022/03/13 15:51:45;;;;;;;;;;;;;;;;;;5040217;28;19971;-77
2022/03/13 15:54:11;;;;;;;;;;;;;;;;;;5047716;28;20015;-78
2022/03/13 15:56:38;;;;;;;;;;;;;;;;;;5054422;28;19963;-80
2022/03/13 15:59:04;;;;;;;;;;;;;;;;;;5052068;28;19959;-79
2022/03/13 16:01:29;;;;;;;;;;;;;;;;;;5051210;28;19960;-76
2022/03/13 16:03:55;;;;;;;;;;;;;;;;;;5051463;28;19920;-76
2022/03/13 16:06:21;;;;;;;;;;;;;;;;;;5051474;28;19929;-77
2022/03/13 16:08:46;;;;;;;;;;;;;;;;;;5052164;28;20023;-79
2022/03/13 16:11:12;;;;;;;;;;;;;;;;;;5049763;28;19937;-79
2022/03/13 16:13:37;;;;;;;;;;;;;;;;;;5052696;28;19943;-78
2022/03/13 16:16:05;;;;;;;;;;;;;;;;;;5054442;28;20266;-78
2022/03/13 16:18:34;;;;;;;;;;;;;;;;;;5051049;28;19921;-77
2022/03/13 16:20:59;;;;;;;;;;;;;;;;;;5049785;28;20311;-79
2022/03/13 16:23:25;;;;;;;;;;;;;;;;;;5049282;28;19924;-79
2022/03/13 16:25:50;;;;;;;;;;;;;;;;;;5049132;28;19921;-78
2022/03/13 16:28:16;;;;;;;;;;;;;;;;;;5048714;28;20489;-79
2022/03/13 16:30:42;;;;;;;;;;;;;;;;;;5051921;28;19932;-78
2022/03/13 16:33:07;;;;;;;;;;;;;;;;;;5050523;28;20343;-80
2022/03/13 16:35:33;;;;;;;;;;;;;;;;;;5049713;28;19921;-78
2022/03/13 16:37:58;;;;;;;;;;;;;;;;;;5049576;28;20007;-77
2022/03/13 16:40:25;;;;;;;;;;;;;;;;;;5052333;28;20288;-75
2022/03/13 16:42:50;;;;;;;;;;;;;;;;;;5054526;28;19921;-77